Newport, OR

9:10 AM PST on March 03, 2015 (GMT -0800)
Schooner Point | Change Station
CLOSE
Current Station
Personal Weather Station
Location: Newport, OR
Elevation: 120 ft
Nearby Weather Stations

Elev 120 ft 44.69 °N, 124.07 °W | Updated 1 second ago

Clear
Clear
43.5 °F
Feels Like 41 °F
N
5.0
Wind Variable Wind from ENE
Gusts 7.0 mph

Today
High -- | Low -- °F
--% Chance of Precip.
Yesterday
High -- | Low -- °F
Precip. -- in
6:50 AM 6:06 PM
Waxing Gibbous, 96% visible
Pressure 30.23 in
Visibility 10.0 miles
Clouds Clear
Windchill 41 °F
Dew Point 17 °F
Humidity 34%
Rainfall 0.00 in
Snow Depth Not available.
UV 1 out of 12
Pollen 3.20 out of 12
Air Quality Not available.
Flu Activity Not available.
METAR KONP 031655Z AUTO 08009KT 10SM CLR 03/03 A3023 RMK AO2

More Conditions Fewer Conditions

Pressure 30.23 in
Visibility 10.0 miles
Clouds Clear
Windchill 41 °F
Dew Point 17 °F
Humidity 34%
Rainfall 0.00 in
Snow Depth Not available.
UV 1 out of 12
Pollen 3.20 out of 12
Air Quality Not available.
Flu Activity Not available.
METAR KONP 031655Z AUTO 08009KT 10SM CLR 03/03 A3023 RMK AO2

More Conditions Fewer Conditions

10-Day Weather Forecast

Almanac

Astronomy

Mar. 03, 2015 Rise Set
Actual Time
Civil Twilight
Nautical Twilight
Astronomical Twilight
Moon
Length of Visible Light
Length of Day
Tomorrow will be .
, % of the Moon is Illuminated

Today's Extremes

State Highs State Lows

Community

WunderPhotos

Upload Photos

1,802,174 photos uploaded!

WunderBlogs® & News

Nearby

Air Quality

  Air Quality AQ Index Pollutant
Not available.

Snow Depth

Station Depth Elevation

Earthquake Activity

City Distance Mag. Time & Date
Minimum magnitude displayed is 2.5.

Coastal Water Temperatures

Place Temperature

Nearby Weather Stations